createdAt,value
2019-01-20T00:00:45.948Z,0
2019-01-20T00:01:45.927Z,0
2019-01-20T00:02:45.663Z,0
2019-01-20T00:03:45.881Z,0
2019-01-20T00:04:45.613Z,0
2019-01-20T00:05:45.837Z,0
2019-01-20T00:06:45.603Z,0
2019-01-20T00:07:45.787Z,0
2019-01-20T00:08:45.764Z,0
2019-01-20T00:09:45.731Z,0
2019-01-20T00:10:45.720Z,0
2019-01-20T00:11:45.692Z,0
2019-01-20T00:12:45.416Z,0
2019-01-20T00:13:45.631Z,0
2019-01-20T00:14:45.368Z,0
2019-01-20T00:15:45.586Z,0
2019-01-20T00:16:45.619Z,0
2019-01-20T00:17:45.539Z,0
2019-01-20T00:18:45.509Z,0
2019-01-20T00:19:45.488Z,0
2019-01-20T00:20:45.275Z,0
2019-01-20T00:21:45.432Z,0
2019-01-20T00:22:45.069Z,0
2019-01-20T00:23:45.387Z,0
2019-01-20T00:24:45.362Z,0
2019-01-20T00:25:45.339Z,0
2019-01-20T00:26:45.075Z,0
2019-01-20T00:27:45.298Z,0
2019-01-20T00:28:45.043Z,0
2019-01-20T00:29:45.240Z,0
2019-01-20T00:30:45.207Z,0
2019-01-20T00:31:45.194Z,0
2019-01-20T00:32:45.163Z,0
2019-01-20T00:33:44.897Z,0
2019-01-20T00:34:45.125Z,0
2019-01-20T00:35:45.097Z,0
2019-01-20T00:36:44.820Z,0
2019-01-20T00:37:45.049Z,0
2019-01-20T00:38:44.784Z,0
2019-01-20T00:39:44.987Z,0
2019-01-20T00:40:44.968Z,0
2019-01-20T00:41:45.109Z,0
2019-01-20T00:42:44.672Z,0
2019-01-20T00:43:44.648Z,0
2019-01-20T00:44:44.622Z,0
2019-01-20T00:45:44.848Z,0
2019-01-20T00:46:44.833Z,0
2019-01-20T00:47:44.794Z,0
2019-01-20T00:48:44.560Z,0
2019-01-20T00:49:44.746Z,0
2019-01-20T00:50:44.736Z,0
2019-01-20T00:51:44.459Z,0
2019-01-20T00:52:44.435Z,0
2019-01-20T00:53:44.670Z,0
2019-01-20T00:54:44.390Z,0
2019-01-20T00:55:44.615Z,0
2019-01-20T00:56:44.588Z,0
2019-01-20T00:57:44.561Z,0
2019-01-20T00:58:44.535Z,0
2019-01-20T00:59:44.511Z,0
2019-01-20T01:00:44.489Z,0
2019-01-20T01:01:44.459Z,0
2019-01-20T01:02:44.435Z,0
2019-01-20T01:03:44.408Z,0
2019-01-20T01:04:44.140Z,0
2019-01-20T01:05:44.364Z,0
2019-01-20T01:06:44.350Z,0
2019-01-20T01:07:45.016Z,0
2019-01-20T01:08:44.292Z,0
2019-01-20T01:09:44.025Z,0
2019-01-20T01:10:44.241Z,0
2019-01-20T01:11:44.216Z,0
2019-01-20T01:12:43.973Z,0
2019-01-20T01:13:44.220Z,0
2019-01-20T01:14:43.889Z,0
2019-01-20T01:15:44.111Z,0
2019-01-20T01:16:44.088Z,0
2019-01-20T01:17:43.571Z,0
2019-01-20T01:18:43.953Z,0
2019-01-20T01:19:44.017Z,0
2019-01-20T01:20:43.743Z,0
2019-01-20T01:21:44.005Z,0
2019-01-20T01:22:43.944Z,0
2019-01-20T01:23:43.923Z,0
2019-01-20T01:24:43.892Z,0
2019-01-20T01:25:43.868Z,0
2019-01-20T01:26:44.086Z,0
2019-01-20T01:27:43.836Z,0
2019-01-20T01:28:43.801Z,0
2019-01-20T01:29:43.519Z,0
2019-01-20T01:30:43.751Z,0
2019-01-20T01:31:43.726Z,0
2019-01-20T01:32:43.691Z,0
2019-01-20T01:33:43.669Z,0
2019-01-20T01:34:43.645Z,0
2019-01-20T01:35:43.624Z,0
2019-01-20T01:36:43.596Z,0
2019-01-20T01:37:43.572Z,0
2019-01-20T01:38:43.705Z,0
2019-01-20T01:39:43.274Z,0
2019-01-20T01:40:43.248Z,0
2019-01-20T01:41:48.654Z,0
2019-01-20T01:42:43.197Z,0
2019-01-20T01:43:43.173Z,0
2019-01-20T01:44:43.402Z,0
2019-01-20T01:45:43.374Z,0
2019-01-20T01:46:43.361Z,0
2019-01-20T01:47:43.318Z,0
2019-01-20T01:48:43.055Z,0
2019-01-20T01:49:43.267Z,0
2019-01-20T01:50:42.995Z,0
2019-01-20T01:51:42.977Z,0
2019-01-20T01:52:43.196Z,0
2019-01-20T01:53:43.167Z,0
2019-01-20T01:54:42.896Z,0
2019-01-20T01:55:43.120Z,0
2019-01-20T01:56:43.110Z,0
2019-01-20T01:57:42.873Z,0
2019-01-20T01:58:42.899Z,0
2019-01-20T01:59:42.770Z,0
2019-01-20T02:00:43.002Z,0
2019-01-20T02:01:42.969Z,0
2019-01-20T02:02:42.962Z,0
2019-01-20T02:03:42.678Z,0
2019-01-20T02:04:42.906Z,0
2019-01-20T02:05:42.873Z,0
2019-01-20T02:06:42.601Z,0
2019-01-20T02:07:42.829Z,0
2019-01-20T02:08:42.553Z,0
2019-01-20T02:09:42.521Z,0
2019-01-20T02:10:42.748Z,0
2019-01-20T02:11:49.267Z,0
2019-01-20T02:12:42.701Z,0
2019-01-20T02:13:42.673Z,0
2019-01-20T02:14:42.650Z,0
2019-01-20T02:15:42.618Z,0
2019-01-20T02:16:42.598Z,0
2019-01-20T02:17:42.576Z,0
2019-01-20T02:18:42.301Z,0
2019-01-20T02:19:42.275Z,0
2019-01-20T02:20:42.253Z,0
2019-01-20T02:21:42.473Z,0
2019-01-20T02:22:42.447Z,0
2019-01-20T02:23:42.421Z,0
2019-01-20T02:24:42.397Z,0
2019-01-20T02:25:42.379Z,0
2019-01-20T02:26:41.860Z,0
2019-01-20T02:27:42.325Z,0
2019-01-20T02:28:42.301Z,0
2019-01-20T02:29:42.277Z,0
2019-01-20T02:30:42.004Z,0
2019-01-20T02:31:42.250Z,0
2019-01-20T02:32:42.210Z,0
2019-01-20T02:33:41.436Z,0
2019-01-20T02:34:41.903Z,0
2019-01-20T02:35:41.903Z,0
2019-01-20T02:36:42.103Z,0
2019-01-20T02:37:42.102Z,0
2019-01-20T02:38:42.075Z,0
2019-01-20T02:39:41.789Z,0
2019-01-20T02:40:42.010Z,0
2019-01-20T02:41:41.981Z,0
2019-01-20T02:42:41.951Z,0
2019-01-20T02:43:41.682Z,0
2019-01-20T02:44:41.663Z,0
2019-01-20T02:45:41.383Z,0
2019-01-20T02:46:41.860Z,0
2019-01-20T02:47:41.850Z,0
2019-01-20T02:48:41.798Z,0
2019-01-20T02:49:41.589Z,0
2019-01-20T02:50:41.521Z,0
2019-01-20T02:51:41.734Z,0
2019-01-20T02:52:41.712Z,0
2019-01-20T02:53:41.790Z,0
2019-01-20T02:54:41.418Z,0
2019-01-20T02:55:41.646Z,0
2019-01-20T02:56:41.606Z,0
2019-01-20T02:57:41.582Z,0
2019-01-20T02:58:41.551Z,0
2019-01-20T02:59:41.538Z,0
2019-01-20T03:00:41.509Z,0
2019-01-20T03:01:41.486Z,0
2019-01-20T03:02:41.458Z,0
2019-01-20T03:03:41.437Z,0
2019-01-20T03:04:40.920Z,0
2019-01-20T03:05:41.387Z,0
2019-01-20T03:06:41.359Z,0
2019-01-20T03:07:41.330Z,0
2019-01-20T03:08:41.072Z,0
2019-01-20T03:09:41.282Z,0
2019-01-20T03:10:41.021Z,0
2019-01-20T03:11:41.229Z,0
2019-01-20T03:12:41.219Z,0
2019-01-20T03:13:41.186Z,0
2019-01-20T03:14:40.707Z,0
2019-01-20T03:15:41.143Z,0
2019-01-20T03:16:41.105Z,0
2019-01-20T03:17:40.836Z,0
2019-01-20T03:18:40.805Z,0
2019-01-20T03:19:41.040Z,0
2019-01-20T03:20:41.023Z,0
2019-01-20T03:21:40.987Z,0
2019-01-20T03:22:40.714Z,0
2019-01-20T03:23:40.942Z,0
2019-01-20T03:24:40.906Z,0
2019-01-20T03:25:40.655Z,0
2019-01-20T03:26:40.633Z,0
2019-01-20T03:27:40.840Z,0
2019-01-20T03:28:40.570Z,0
2019-01-20T03:29:40.781Z,0
2019-01-20T03:30:40.590Z,0
2019-01-20T03:31:40.769Z,0
2019-01-20T03:32:40.732Z,0
2019-01-20T03:33:40.460Z,0
2019-01-20T03:34:40.412Z,0
2019-01-20T03:35:40.791Z,0
2019-01-20T03:36:40.624Z,0
2019-01-20T03:37:40.334Z,0
2019-01-20T03:38:40.569Z,0
2019-01-20T03:39:40.542Z,0
2019-01-20T03:40:40.510Z,0
2019-01-20T03:41:40.505Z,0
2019-01-20T03:42:40.473Z,0
2019-01-20T03:43:40.467Z,0
2019-01-20T03:44:40.408Z,0
2019-01-20T03:45:40.148Z,0
2019-01-20T03:46:40.116Z,0
2019-01-20T03:47:39.843Z,0
2019-01-20T03:48:40.083Z,0
2019-01-20T03:49:40.301Z,0
2019-01-20T03:50:40.020Z,0
2019-01-20T03:51:40.246Z,0
2019-01-20T03:52:39.962Z,0
2019-01-20T03:53:39.693Z,0
2019-01-20T03:54:40.159Z,0
2019-01-20T03:55:39.890Z,0
2019-01-20T03:56:39.872Z,0
2019-01-20T03:57:40.088Z,0
2019-01-20T03:58:40.065Z,0
2019-01-20T03:59:40.110Z,0
2019-01-20T04:00:40.311Z,0
2019-01-20T04:01:39.748Z,0
2019-01-20T04:02:39.995Z,0
2019-01-20T04:03:39.937Z,0
2019-01-20T04:04:39.660Z,0
2019-01-20T04:05:39.890Z,0
2019-01-20T04:06:39.610Z,0
2019-01-20T04:07:39.840Z,0
2019-01-20T04:08:39.564Z,0
2019-01-20T04:09:39.542Z,0
2019-01-20T04:10:39.778Z,0
2019-01-20T04:11:39.732Z,0
2019-01-20T04:12:39.715Z,0
2019-01-20T04:13:39.685Z,0
2019-01-20T04:14:39.659Z,0
2019-01-20T04:15:39.642Z,0
2019-01-20T04:16:39.625Z,0
2019-01-20T04:17:39.606Z,0
2019-01-20T04:18:39.578Z,0
2019-01-20T04:19:39.291Z,0
2019-01-20T04:20:39.576Z,0
2019-01-20T04:21:39.481Z,0
2019-01-20T04:22:39.217Z,0
2019-01-20T04:23:39.437Z,0
2019-01-20T04:24:39.410Z,0
2019-01-20T04:25:38.889Z,0
2019-01-20T04:26:39.379Z,0
2019-01-20T04:27:39.093Z,0
2019-01-20T04:28:39.102Z,0
2019-01-20T04:29:39.292Z,0
2019-01-20T04:30:38.764Z,0
2019-01-20T04:31:39.236Z,0
2019-01-20T04:32:38.979Z,0
2019-01-20T04:33:39.189Z,0
2019-01-20T04:34:39.172Z,0
2019-01-20T04:35:38.888Z,0
2019-01-20T04:36:39.105Z,0
2019-01-20T04:37:39.095Z,0
2019-01-20T04:38:38.810Z,0
2019-01-20T04:39:39.042Z,0
2019-01-20T04:40:38.770Z,0
2019-01-20T04:41:38.988Z,0
2019-01-20T04:42:39.021Z,0
2019-01-20T04:43:38.691Z,0
2019-01-20T04:44:38.925Z,0
2019-01-20T04:45:38.642Z,0
2019-01-20T04:46:38.946Z,0
2019-01-20T04:47:38.408Z,0
2019-01-20T04:48:38.805Z,0
2019-01-20T04:49:38.788Z,0
2019-01-20T04:50:38.758Z,0
2019-01-20T04:51:38.735Z,0
2019-01-20T04:52:38.466Z,0
2019-01-20T04:53:38.681Z,0
2019-01-20T04:54:38.661Z,0
2019-01-20T04:55:38.641Z,0
2019-01-20T04:56:38.612Z,0
2019-01-20T04:57:38.599Z,0
2019-01-20T04:58:38.065Z,0
2019-01-20T04:59:38.543Z,0
2019-01-20T05:00:38.563Z,0
2019-01-20T05:01:38.480Z,0
2019-01-20T05:02:38.457Z,0
2019-01-20T05:03:38.185Z,0
2019-01-20T05:04:38.411Z,0
2019-01-20T05:05:38.146Z,0
2019-01-20T05:06:38.356Z,0
2019-01-20T05:07:38.335Z,0
2019-01-20T05:08:38.063Z,0
2019-01-20T05:09:38.286Z,0
2019-01-20T05:10:38.259Z,0
2019-01-20T05:11:37.988Z,0
2019-01-20T05:12:44.680Z,0
2019-01-20T05:13:38.212Z,0
2019-01-20T05:14:37.906Z,0
2019-01-20T05:15:37.884Z,0
2019-01-20T05:16:38.110Z,0
2019-01-20T05:17:37.583Z,0
2019-01-20T05:18:38.107Z,0
2019-01-20T05:19:37.787Z,0
2019-01-20T05:20:37.774Z,0
2019-01-20T05:21:37.979Z,0
2019-01-20T05:22:37.973Z,0
2019-01-20T05:23:37.685Z,0
2019-01-20T05:24:37.911Z,0
2019-01-20T05:25:37.877Z,0
2019-01-20T05:26:37.884Z,0
2019-01-20T05:27:37.579Z,0
2019-01-20T05:28:37.802Z,0
2019-01-20T05:29:37.782Z,0
2019-01-20T05:30:37.519Z,0
2019-01-20T05:31:37.729Z,0
2019-01-20T05:32:37.455Z,0
2019-01-20T05:33:37.444Z,0
2019-01-20T05:34:37.426Z,0
2019-01-20T05:35:37.638Z,0
2019-01-20T05:36:37.604Z,0
2019-01-20T05:37:37.585Z,0
2019-01-20T05:38:37.309Z,0
2019-01-20T05:39:37.547Z,0
2019-01-20T05:40:37.501Z,0
2019-01-20T05:41:37.481Z,0
2019-01-20T05:42:37.201Z,0
2019-01-20T05:43:37.440Z,0
2019-01-20T05:44:37.443Z,0
2019-01-20T05:45:37.389Z,0
2019-01-20T05:46:37.347Z,0
2019-01-20T05:47:37.324Z,0
2019-01-20T05:48:37.659Z,0
2019-01-20T05:49:37.283Z,0
2019-01-20T05:50:37.029Z,0
2019-01-20T05:51:36.730Z,0
2019-01-20T05:52:37.207Z,0
2019-01-20T05:53:37.268Z,0
2019-01-20T05:54:37.156Z,0
2019-01-20T05:55:37.124Z,0
2019-01-20T05:56:36.857Z,0
2019-01-20T05:57:37.098Z,0
2019-01-20T05:58:36.819Z,0
2019-01-20T05:59:37.021Z,0
2019-01-20T06:00:37.013Z,0
2019-01-20T06:01:36.979Z,0
2019-01-20T06:02:36.729Z,0
2019-01-20T06:03:36.920Z,0
2019-01-20T06:04:36.897Z,0
2019-01-20T06:05:36.877Z,0
2019-01-20T06:06:36.852Z,0
2019-01-20T06:07:36.819Z,0
2019-01-20T06:08:36.549Z,0
2019-01-20T06:09:36.528Z,0
2019-01-20T06:10:36.253Z,0
2019-01-20T06:11:36.741Z,0
2019-01-20T06:12:36.705Z,0
2019-01-20T06:13:36.675Z,0
2019-01-20T06:14:36.651Z,0
2019-01-20T06:15:36.626Z,0
2019-01-20T06:16:36.382Z,0
2019-01-20T06:17:36.593Z,0
2019-01-20T06:18:36.063Z,0
2019-01-20T06:19:36.331Z,0
2019-01-20T06:20:36.507Z,0
2019-01-20T06:21:36.482Z,0
2019-01-20T06:22:36.449Z,0
2019-01-20T06:23:36.175Z,0
2019-01-20T06:24:36.397Z,0
2019-01-20T06:25:36.378Z,0
2019-01-20T06:26:36.405Z,0
2019-01-20T06:27:36.320Z,0
2019-01-20T06:28:36.298Z,0
2019-01-20T06:29:36.272Z,0
2019-01-20T06:30:36.254Z,0
2019-01-20T06:31:35.972Z,0
2019-01-20T06:32:36.200Z,0
2019-01-20T06:33:36.171Z,0
2019-01-20T06:34:36.153Z,0
2019-01-20T06:35:36.122Z,0
2019-01-20T06:36:35.857Z,0
2019-01-20T06:37:36.078Z,0
2019-01-20T06:38:35.801Z,0
2019-01-20T06:39:36.018Z,0
2019-01-20T06:40:35.746Z,0
2019-01-20T06:41:35.978Z,0
2019-01-20T06:42:35.451Z,0
2019-01-20T06:43:35.673Z,0
2019-01-20T06:44:35.646Z,0
2019-01-20T06:45:35.864Z,0
2019-01-20T06:46:35.872Z,0
2019-01-20T06:47:35.818Z,0
2019-01-20T06:48:35.556Z,0
2019-01-20T06:49:35.778Z,0
2019-01-20T06:50:35.742Z,0
2019-01-20T06:51:35.728Z,0
2019-01-20T06:52:35.696Z,0
2019-01-20T06:53:35.673Z,0
2019-01-20T06:54:35.645Z,0
2019-01-20T06:55:35.374Z,0
2019-01-20T06:56:35.098Z,0
2019-01-20T06:57:35.337Z,0
2019-01-20T06:58:35.551Z,0
2019-01-20T06:59:35.519Z,5
2019-01-20T07:00:36.518Z,5
2019-01-20T07:01:34.979Z,5
2019-01-20T07:02:35.448Z,5
2019-01-20T07:03:35.180Z,5
2019-01-20T07:04:35.402Z,5
2019-01-20T07:05:35.126Z,5
2019-01-20T07:06:35.356Z,5
2019-01-20T07:07:35.324Z,5
2019-01-20T07:08:34.805Z,5
2019-01-20T07:09:34.790Z,5
2019-01-20T07:10:35.008Z,10
2019-01-20T07:11:34.972Z,10
2019-01-20T07:12:35.202Z,10
2019-01-20T07:13:34.930Z,10
2019-01-20T07:14:34.903Z,10
2019-01-20T07:15:35.128Z,10
2019-01-20T07:16:34.864Z,10
2019-01-20T07:17:34.827Z,10
2019-01-20T07:18:35.055Z,15
2019-01-20T07:19:35.031Z,15
2019-01-20T07:20:34.512Z,15
2019-01-20T07:21:34.977Z,15
2019-01-20T07:22:34.706Z,15
2019-01-20T07:23:34.928Z,15
2019-01-20T07:24:34.910Z,15
2019-01-20T07:25:34.642Z,20
2019-01-20T07:26:34.858Z,20
2019-01-20T07:27:34.582Z,20
2019-01-20T07:28:34.803Z,20
2019-01-20T07:29:34.788Z,20
2019-01-20T07:30:34.511Z,20
2019-01-20T07:31:34.485Z,20
2019-01-20T07:32:34.711Z,20
2019-01-20T07:33:34.434Z,25
2019-01-20T07:34:34.498Z,25
2019-01-20T07:35:34.640Z,25
2019-01-20T07:36:34.619Z,25
2019-01-20T07:37:34.582Z,25
2019-01-20T07:38:34.558Z,25
2019-01-20T07:39:34.543Z,25
2019-01-20T07:40:34.519Z,25
2019-01-20T07:41:34.262Z,30
2019-01-20T07:42:34.217Z,30
2019-01-20T07:43:34.192Z,30
2019-01-20T07:44:34.437Z,30
2019-01-20T07:45:34.390Z,30
2019-01-20T07:46:34.378Z,30
2019-01-20T07:47:34.091Z,30
2019-01-20T07:48:34.314Z,30
2019-01-20T07:49:34.287Z,35
2019-01-20T07:50:34.013Z,35
2019-01-20T07:51:34.251Z,35
2019-01-20T07:52:33.981Z,35
2019-01-20T07:53:34.194Z,35
2019-01-20T07:54:33.922Z,35
2019-01-20T07:55:33.905Z,35
2019-01-20T07:56:33.874Z,35
2019-01-20T07:57:34.145Z,40
2019-01-20T07:58:34.072Z,40
2019-01-20T07:59:34.044Z,40
2019-01-20T08:00:33.783Z,40
2019-01-20T08:01:33.998Z,40
2019-01-20T08:02:33.966Z,40
2019-01-20T08:03:33.947Z,40
2019-01-20T08:04:33.933Z,40
2019-01-20T08:05:33.920Z,40
2019-01-20T08:06:33.625Z,40
2019-01-20T08:07:33.853Z,45
2019-01-20T08:08:33.585Z,45
2019-01-20T08:09:33.304Z,45
2019-01-20T08:10:33.776Z,45
2019-01-20T08:11:33.503Z,45
2019-01-20T08:12:33.233Z,45
2019-01-20T08:13:34.142Z,45
2019-01-20T08:14:33.682Z,45
2019-01-20T08:15:33.650Z,45
2019-01-20T08:16:33.630Z,45
2019-01-20T08:17:33.354Z,50
2019-01-20T08:18:33.589Z,50
2019-01-20T08:19:33.315Z,50
2019-01-20T08:20:33.280Z,50
2019-01-20T08:21:33.261Z,50
2019-01-20T08:22:33.489Z,50
2019-01-20T08:23:33.454Z,50
2019-01-20T08:24:33.433Z,50
2019-01-20T08:25:33.406Z,50
2019-01-20T08:26:33.390Z,50
2019-01-20T08:27:33.362Z,50
2019-01-20T08:28:33.343Z,50
2019-01-20T08:29:33.062Z,50
2019-01-20T08:30:33.307Z,50
2019-01-20T08:31:33.641Z,50
2019-01-20T08:32:33.240Z,55
2019-01-20T08:33:32.967Z,55
2019-01-20T08:34:33.197Z,55
2019-01-20T08:35:32.922Z,55
2019-01-20T08:36:33.548Z,55
2019-01-20T08:37:38.931Z,55
2019-01-20T08:38:32.854Z,55
2019-01-20T08:39:32.828Z,55
2019-01-20T08:40:32.801Z,55
2019-01-20T08:41:32.781Z,55
2019-01-20T08:42:32.994Z,55
2019-01-20T08:43:38.794Z,55
2019-01-20T08:44:32.950Z,55
2019-01-20T08:45:32.929Z,55
2019-01-20T08:46:32.894Z,55
2019-01-20T08:47:32.631Z,55
2019-01-20T08:48:32.853Z,60
2019-01-20T08:49:32.832Z,60
2019-01-20T08:50:32.813Z,60
2019-01-20T08:51:32.782Z,60
2019-01-20T08:52:32.756Z,60
2019-01-20T08:53:33.271Z,60
2019-01-20T08:54:32.478Z,60
2019-01-20T08:55:32.684Z,60
2019-01-20T08:56:32.674Z,60
2019-01-20T08:57:32.638Z,60
2019-01-20T08:58:32.614Z,60
2019-01-20T08:59:32.584Z,60
2019-01-20T09:00:32.565Z,60
2019-01-20T09:01:32.937Z,60
2019-01-20T09:02:32.269Z,60
2019-01-20T09:03:32.248Z,60
2019-01-20T09:04:32.234Z,65
2019-01-20T09:05:31.960Z,65
2019-01-20T09:06:32.431Z,65
2019-01-20T09:07:32.161Z,65
2019-01-20T09:08:32.389Z,65
2019-01-20T09:09:32.109Z,65
2019-01-20T09:10:32.335Z,65
2019-01-20T09:11:32.307Z,65
2019-01-20T09:12:32.039Z,65
2019-01-20T09:13:39.311Z,65
2019-01-20T09:14:32.238Z,65
2019-01-20T09:15:32.213Z,65
2019-01-20T09:16:31.691Z,70
2019-01-20T09:17:32.171Z,70
2019-01-20T09:18:33.673Z,70
2019-01-20T09:19:32.157Z,70
2019-01-20T09:20:32.092Z,70
2019-01-20T09:21:32.076Z,70
2019-01-20T09:22:32.107Z,70
2019-01-20T09:23:32.030Z,70
2019-01-20T09:24:31.508Z,70
2019-01-20T09:25:31.978Z,70
2019-01-20T09:26:31.958Z,70
2019-01-20T09:27:31.704Z,70
2019-01-20T09:28:31.911Z,70
2019-01-20T09:29:31.889Z,70
2019-01-20T09:30:31.875Z,70
2019-01-20T09:31:31.593Z,70
2019-01-20T09:32:31.821Z,75
2019-01-20T09:33:34.147Z,75
2019-01-20T09:34:31.776Z,75
2019-01-20T09:35:32.235Z,75
2019-01-20T09:36:31.483Z,75
2019-01-20T09:37:31.708Z,75
2019-01-20T09:38:31.685Z,75
2019-01-20T09:39:31.417Z,75
2019-01-20T09:40:31.648Z,75
2019-01-20T09:41:30.876Z,75
2019-01-20T09:42:31.600Z,75
2019-01-20T09:43:31.584Z,75
2019-01-20T09:44:31.598Z,75
2019-01-20T09:45:31.535Z,75
2019-01-20T09:46:31.300Z,75
2019-01-20T09:47:31.489Z,75
2019-01-20T09:48:31.213Z,75
2019-01-20T09:49:31.446Z,75
2019-01-20T09:50:31.418Z,75
2019-01-20T09:51:31.403Z,75
2019-01-20T09:52:31.369Z,75
2019-01-20T09:53:31.113Z,75
2019-01-20T09:54:31.081Z,75
2019-01-20T09:55:31.061Z,75
2019-01-20T09:56:31.282Z,75
2019-01-20T09:57:31.258Z,75
2019-01-20T09:58:30.990Z,75
2019-01-20T09:59:30.964Z,75
2019-01-20T10:00:31.234Z,75
2019-01-20T10:01:31.214Z,75
2019-01-20T10:02:31.143Z,75
2019-01-20T10:03:30.869Z,75
2019-01-20T10:04:31.105Z,75
2019-01-20T10:05:30.883Z,75
2019-01-20T10:06:31.060Z,75
2019-01-20T10:07:31.032Z,75
2019-01-20T10:08:30.771Z,75
2019-01-20T10:09:30.994Z,75
2019-01-20T10:10:30.989Z,75
2019-01-20T10:11:30.953Z,80
2019-01-20T10:12:30.919Z,80
2019-01-20T10:13:30.405Z,80
2019-01-20T10:14:30.929Z,80
2019-01-20T10:15:30.859Z,80
2019-01-20T10:16:30.834Z,80
2019-01-20T10:17:30.819Z,80
2019-01-20T10:18:30.788Z,80
2019-01-20T10:19:30.768Z,80
2019-01-20T10:20:33.545Z,80
2019-01-20T10:21:30.732Z,80
2019-01-20T10:22:30.748Z,85
2019-01-20T10:23:30.738Z,85
2019-01-20T10:24:30.656Z,85
2019-01-20T10:25:30.694Z,85
2019-01-20T10:26:30.631Z,85
2019-01-20T10:27:30.584Z,85
2019-01-20T10:28:30.586Z,85
2019-01-20T10:29:30.546Z,90
2019-01-20T10:30:30.535Z,90
2019-01-20T10:31:30.506Z,90
2019-01-20T10:32:30.242Z,90
2019-01-20T10:33:30.458Z,90
2019-01-20T10:34:30.438Z,90
2019-01-20T10:35:30.162Z,90
2019-01-20T10:36:30.391Z,95
2019-01-20T10:37:30.400Z,95
2019-01-20T10:38:30.348Z,95
2019-01-20T10:39:30.340Z,100
2019-01-20T10:40:30.358Z,100
2019-01-20T10:41:30.290Z,95
2019-01-20T10:42:30.268Z,100
2019-01-20T10:43:30.257Z,105
2019-01-20T10:44:30.235Z,105
2019-01-20T10:45:30.260Z,100
2019-01-20T10:46:30.180Z,85
2019-01-20T10:47:30.149Z,95
2019-01-20T10:48:30.130Z,105
2019-01-20T10:49:30.113Z,105
2019-01-20T10:50:29.841Z,105
2019-01-20T10:51:29.828Z,110
2019-01-20T10:52:30.055Z,95
2019-01-20T10:53:29.787Z,105
2019-01-20T10:54:29.757Z,105
2019-01-20T10:55:29.980Z,85
2019-01-20T10:56:29.712Z,85
2019-01-20T10:57:29.693Z,90
2019-01-20T10:58:29.694Z,95
2019-01-20T10:59:29.665Z,110
2019-01-20T11:00:29.926Z,100
2019-01-20T11:01:29.861Z,105
2019-01-20T11:02:29.840Z,115
2019-01-20T11:03:29.819Z,115
2019-01-20T11:04:29.790Z,105
2019-01-20T11:05:38.058Z,115
2019-01-20T11:06:29.755Z,125
2019-01-20T11:07:29.733Z,130
2019-01-20T11:08:29.470Z,125
2019-01-20T11:09:29.442Z,145
2019-01-20T11:10:29.180Z,140
2019-01-20T11:11:29.649Z,155
2019-01-20T11:12:29.622Z,150
2019-01-20T11:13:29.609Z,135
2019-01-20T11:14:28.846Z,135
2019-01-20T11:15:29.571Z,140
2019-01-20T11:16:29.053Z,145
2019-01-20T11:17:29.281Z,160
2019-01-20T11:18:29.508Z,170
2019-01-20T11:19:29.239Z,185
2019-01-20T11:20:29.461Z,190
2019-01-20T11:21:29.491Z,175
2019-01-20T11:22:29.417Z,180
2019-01-20T11:23:29.395Z,170
2019-01-20T11:24:29.125Z,180
2019-01-20T11:25:29.353Z,180
2019-01-20T11:26:29.387Z,180
2019-01-20T11:27:28.824Z,185
2019-01-20T11:28:29.053Z,185
2019-01-20T11:29:29.286Z,185
2019-01-20T11:30:29.264Z,190
2019-01-20T11:31:29.242Z,190
2019-01-20T11:32:28.968Z,200
2019-01-20T11:33:28.951Z,205
2019-01-20T11:34:28.686Z,210
2019-01-20T11:35:29.956Z,205
2019-01-20T11:36:28.891Z,195
2019-01-20T11:37:29.121Z,190
2019-01-20T11:38:29.101Z,190
2019-01-20T11:39:29.087Z,190
2019-01-20T11:40:28.813Z,195
2019-01-20T11:41:29.098Z,190
2019-01-20T11:42:29.034Z,195
2019-01-20T11:43:29.008Z,195
2019-01-20T11:44:28.997Z,195
2019-01-20T11:45:28.731Z,195
2019-01-20T11:46:29.000Z,195
2019-01-20T11:47:28.927Z,195
2019-01-20T11:48:28.670Z,195
2019-01-20T11:49:28.660Z,190
2019-01-20T11:50:28.621Z,185
2019-01-20T11:51:28.904Z,180
2019-01-20T11:52:28.830Z,185
2019-01-20T11:53:28.811Z,190
2019-01-20T11:54:28.794Z,190
2019-01-20T11:55:28.781Z,185
2019-01-20T11:56:28.778Z,185
2019-01-20T11:57:28.736Z,185
2019-01-20T11:58:28.720Z,185
2019-01-20T11:59:28.450Z,185
2019-01-20T12:00:28.686Z,185
2019-01-20T12:01:28.759Z,190
2019-01-20T12:02:32.081Z,185
2019-01-20T12:03:28.640Z,185
2019-01-20T12:04:28.610Z,190
2019-01-20T12:05:28.585Z,190
2019-01-20T12:06:28.575Z,185
2019-01-20T12:07:28.555Z,190
2019-01-20T12:08:35.440Z,195
2019-01-20T12:09:28.517Z,195
2019-01-20T12:10:28.251Z,190
2019-01-20T12:11:28.478Z,185
2019-01-20T12:12:28.459Z,190
2019-01-20T12:13:28.889Z,190
2019-01-20T12:14:33.336Z,185
2019-01-20T12:15:28.406Z,185
2019-01-20T12:16:28.431Z,185
2019-01-20T12:17:28.372Z,190
2019-01-20T12:18:28.107Z,190
2019-01-20T12:19:28.093Z,185
2019-01-20T12:20:28.309Z,180
2019-01-20T12:21:27.799Z,180
2019-01-20T12:22:28.080Z,175
2019-01-20T12:23:28.019Z,175
2019-01-20T12:24:28.804Z,170
2019-01-20T12:25:27.976Z,165
2019-01-20T12:26:27.957Z,160
2019-01-20T12:27:28.130Z,160
2019-01-20T12:28:28.170Z,160
2019-01-20T12:29:28.203Z,160
2019-01-20T12:30:28.145Z,155
2019-01-20T12:31:27.625Z,155
2019-01-20T12:32:27.854Z,155
2019-01-20T12:33:27.845Z,155
2019-01-20T12:34:28.100Z,155
2019-01-20T12:35:27.796Z,155
2019-01-20T12:36:27.773Z,145
2019-01-20T12:37:28.003Z,145
2019-01-20T12:38:27.984Z,145
2019-01-20T12:39:27.962Z,145
2019-01-20T12:40:29.522Z,145
2019-01-20T12:41:27.927Z,145
2019-01-20T12:42:27.957Z,145
2019-01-20T12:43:27.896Z,145
2019-01-20T12:44:33.941Z,140
2019-01-20T12:45:27.849Z,145
2019-01-20T12:46:27.584Z,145
2019-01-20T12:47:27.860Z,145
2019-01-20T12:48:27.820Z,145
2019-01-20T12:49:27.817Z,140
2019-01-20T12:50:27.761Z,140
2019-01-20T12:51:33.372Z,145
2019-01-20T12:52:27.777Z,145
2019-01-20T12:53:27.696Z,145
2019-01-20T12:54:27.429Z,140
2019-01-20T12:55:27.671Z,140
2019-01-20T12:56:27.397Z,140
2019-01-20T12:57:27.625Z,140
2019-01-20T12:58:27.602Z,135
2019-01-20T12:59:27.586Z,140
2019-01-20T13:00:27.325Z,140
2019-01-20T13:01:27.545Z,135
2019-01-20T13:02:27.577Z,135
2019-01-20T13:03:27.528Z,140
2019-01-20T13:04:27.496Z,135
2019-01-20T13:05:27.466Z,135
2019-01-20T13:06:27.519Z,130
2019-01-20T13:07:26.949Z,125
2019-01-20T13:08:27.457Z,125
2019-01-20T13:09:27.204Z,130
2019-01-20T13:10:27.372Z,130
2019-01-20T13:11:27.356Z,130
2019-01-20T13:12:27.329Z,130
2019-01-20T13:13:27.067Z,130
2019-01-20T13:14:27.938Z,130
2019-01-20T13:15:27.267Z,130
2019-01-20T13:16:26.808Z,130
2019-01-20T13:17:27.246Z,125
2019-01-20T13:18:26.962Z,125
2019-01-20T13:19:27.192Z,130
2019-01-20T13:20:27.172Z,130
2019-01-20T13:21:27.144Z,125
2019-01-20T13:22:26.628Z,125
2019-01-20T13:23:27.215Z,120
2019-01-20T13:24:27.097Z,120
2019-01-20T13:25:26.823Z,120
2019-01-20T13:26:27.769Z,120
2019-01-20T13:27:27.033Z,115
2019-01-20T13:28:27.009Z,115
2019-01-20T13:29:26.990Z,115
2019-01-20T13:30:26.962Z,115
2019-01-20T13:31:26.697Z,115
2019-01-20T13:32:26.938Z,110
2019-01-20T13:33:26.433Z,110
2019-01-20T13:34:26.641Z,105
2019-01-20T13:35:26.923Z,105
2019-01-20T13:36:26.848Z,105
2019-01-20T13:37:26.592Z,105
2019-01-20T13:38:26.859Z,105
2019-01-20T13:39:26.792Z,105
2019-01-20T13:40:26.771Z,105
2019-01-20T13:41:26.772Z,100
2019-01-20T13:42:26.231Z,100
2019-01-20T13:43:26.763Z,100
2019-01-20T13:44:26.691Z,100
2019-01-20T13:45:26.670Z,100
2019-01-20T13:46:26.397Z,95
2019-01-20T13:47:26.632Z,95
2019-01-20T13:48:26.672Z,95
2019-01-20T13:49:26.595Z,95
2019-01-20T13:50:26.369Z,95
2019-01-20T13:51:26.562Z,90
2019-01-20T13:52:26.526Z,85
2019-01-20T13:53:26.262Z,85
2019-01-20T13:54:26.494Z,85
2019-01-20T13:55:26.523Z,85
2019-01-20T13:56:26.442Z,85
2019-01-20T13:57:26.431Z,85
2019-01-20T13:58:26.410Z,85
2019-01-20T13:59:26.149Z,85
2019-01-20T14:00:26.377Z,85
2019-01-20T14:01:26.353Z,80
2019-01-20T14:02:26.332Z,80
2019-01-20T14:03:26.361Z,80
2019-01-20T14:04:25.797Z,80
2019-01-20T14:05:26.274Z,80
2019-01-20T14:06:26.248Z,80
2019-01-20T14:07:26.226Z,75
2019-01-20T14:08:26.258Z,75
2019-01-20T14:09:26.193Z,80
2019-01-20T14:10:25.924Z,80
2019-01-20T14:11:25.895Z,75
2019-01-20T14:12:26.131Z,75
2019-01-20T14:13:26.154Z,75
2019-01-20T14:14:26.085Z,75
2019-01-20T14:15:25.828Z,75
2019-01-20T14:16:26.046Z,75
2019-01-20T14:17:26.016Z,75
2019-01-20T14:18:26.002Z,70
2019-01-20T14:19:31.285Z,70
2019-01-20T14:20:25.966Z,70
2019-01-20T14:21:25.942Z,70
2019-01-20T14:22:25.673Z,70
2019-01-20T14:23:26.006Z,70
2019-01-20T14:24:25.883Z,70